createdAt,value
2023-04-01T00:01:50.703Z,99971.16
2023-04-01T00:06:50.954Z,99964.19
2023-04-01T00:11:49.788Z,99949.28
2023-04-01T00:16:49.152Z,99939.75
2023-04-01T00:21:49.197Z,99938.16
2023-04-01T00:26:50.025Z,99943.84
2023-04-01T00:31:50.372Z,99917.66
2023-04-01T00:36:49.199Z,99934.53
2023-04-01T00:41:49.821Z,99919.00
2023-04-01T00:46:48.784Z,99901.63
2023-04-01T00:51:49.231Z,99900.41
2023-04-01T00:56:56.918Z,99891.63
2023-04-01T01:01:56.259Z,99883.81
2023-04-01T01:07:18.262Z,99875.16
2023-04-01T01:12:21.233Z,99875.25
2023-04-01T01:17:38.274Z,99869.34
2023-04-01T01:23:01.568Z,99874.19
2023-04-01T01:28:17.741Z,99867.69
2023-04-01T01:33:35.551Z,99854.84
2023-04-01T01:38:37.971Z,99848.22
2023-04-01T01:43:42.614Z,99831.78
2023-04-01T01:48:44.365Z,99832.84
2023-04-01T01:53:45.108Z,99828.75
2023-04-01T01:58:47.976Z,99815.66
2023-04-01T02:03:50.726Z,99817.81
2023-04-01T02:08:57.933Z,99798.00
2023-04-01T02:14:02.473Z,99793.91
2023-04-01T02:19:03.739Z,99794.88
2023-04-01T02:24:08.069Z,99795.81
2023-04-01T02:29:10.802Z,99792.69
2023-04-01T02:34:09.972Z,99780.34
2023-04-01T02:39:10.724Z,99786.81
2023-04-01T02:44:10.297Z,99774.09
2023-04-01T02:49:09.848Z,99770.97
2023-04-01T02:54:10.104Z,99768.66
2023-04-01T02:59:09.233Z,99768.88
2023-04-01T03:04:08.132Z,99761.41
2023-04-01T03:09:07.041Z,99758.41
2023-04-01T03:14:08.107Z,99756.81
2023-04-01T03:19:07.110Z,99760.63
2023-04-01T03:24:07.298Z,99768.28
2023-04-01T03:29:07.614Z,99765.38
2023-04-01T03:34:06.599Z,99765.31
2023-04-01T03:39:06.242Z,99766.78
2023-04-01T03:44:14.515Z,99763.31
2023-04-01T03:49:13.990Z,99747.69
2023-04-01T03:54:13.427Z,99752.50
2023-04-01T03:59:14.207Z,99755.38
2023-04-01T04:04:15.799Z,99744.22
2023-04-01T04:09:15.856Z,99726.69
2023-04-01T04:14:16.717Z,99726.69
2023-04-01T04:19:18.757Z,99722.91
2023-04-01T04:24:17.839Z,99719.06
2023-04-01T04:29:38.436Z,99714.97
2023-04-01T04:34:45.478Z,99733.91
2023-04-01T04:39:44.686Z,99725.34
2023-04-01T04:44:45.252Z,99735.66
2023-04-01T04:49:44.540Z,99725.28
2023-04-01T04:54:43.813Z,99730.00
2023-04-01T04:59:44.842Z,99715.50
2023-04-01T05:05:03.895Z,99711.06
2023-04-01T05:10:02.924Z,99703.66
2023-04-01T05:15:03.357Z,99702.31
2023-04-01T05:20:03.646Z,99696.06
2023-04-01T05:25:02.602Z,99710.03
2023-04-01T05:30:03.484Z,99705.38
2023-04-01T05:35:15.782Z,99708.66
2023-04-01T05:40:15.423Z,99709.84
2023-04-01T05:45:16.899Z,99709.84
2023-04-01T05:50:43.457Z,99694.22
2023-04-01T05:55:43.953Z,99682.66
2023-04-01T06:00:44.958Z,99686.25
2023-04-01T06:05:46.623Z,99672.13
2023-04-01T06:10:55.450Z,99666.06
2023-04-01T06:16:07.316Z,99668.44
2023-04-01T06:21:17.024Z,99666.81
2023-04-01T06:26:36.920Z,99674.19
2023-04-01T06:32:04.444Z,99680.66
2023-04-01T06:37:21.898Z,99677.06
2023-04-01T06:42:55.108Z,99677.19
2023-04-01T06:48:41.542Z,99676.81
2023-04-01T06:54:05.994Z,99673.75
2023-04-01T06:59:27.526Z,99673.00
2023-04-01T07:04:32.925Z,99682.13
2023-04-01T07:09:37.424Z,99678.09
2023-04-01T07:15:21.781Z,99673.97
2023-04-01T07:20:28.863Z,99682.91
2023-04-01T07:25:34.008Z,99687.03
2023-04-01T07:31:14.498Z,99697.38
2023-04-01T07:36:27.664Z,99695.38
2023-04-01T07:41:34.585Z,99699.34
2023-04-01T07:47:01.624Z,99696.31
2023-04-01T07:52:08.669Z,99682.25
2023-04-01T07:57:19.444Z,99671.13
2023-04-01T08:02:34.265Z,99655.25
2023-04-01T08:07:45.086Z,99679.94
2023-04-01T08:13:16.641Z,99664.03
2023-04-01T08:18:49.163Z,99655.81
2023-04-01T08:23:53.576Z,99660.69
2023-04-01T08:28:56.698Z,99653.72
2023-04-01T08:34:21.206Z,99659.84
2023-04-01T08:39:33.499Z,99668.50
2023-04-01T08:45:23.131Z,99668.38
2023-04-01T08:51:03.121Z,99665.59
2023-04-01T08:56:17.538Z,99646.16
2023-04-01T09:01:41.864Z,99644.59
2023-04-01T09:07:42.104Z,99638.22
2023-04-01T09:12:58.426Z,99630.84
2023-04-01T09:18:41.886Z,99638.06
2023-04-01T09:23:58.492Z,99627.97
2023-04-01T09:29:12.148Z,99636.84
2023-04-01T09:34:41.189Z,99632.78
2023-04-01T09:39:49.123Z,99639.03
2023-04-01T09:44:59.766Z,99623.56
2023-04-01T09:50:16.465Z,99624.00
2023-04-01T09:55:51.108Z,99607.88
2023-04-01T10:01:14.057Z,99609.75
2023-04-01T10:06:20.024Z,99608.94
2023-04-01T10:11:51.216Z,99600.13
2023-04-01T10:17:21.520Z,99601.34
2023-04-01T10:22:34.793Z,99585.91
2023-04-01T10:27:57.548Z,99577.72
2023-04-01T10:34:02.554Z,99583.66
2023-04-01T10:39:37.863Z,99589.09
2023-04-01T10:45:29.499Z,99575.34
2023-04-01T10:50:50.059Z,99577.66
2023-04-01T10:56:31.911Z,99564.47
2023-04-01T11:02:14.653Z,99557.78
2023-04-01T11:08:16.550Z,99555.44
2023-04-01T11:13:51.346Z,99541.06
2023-04-01T11:19:27.332Z,99526.66
2023-04-01T11:24:46.299Z,99535.47
2023-04-01T11:30:18.341Z,99525.03
2023-04-01T11:35:54.184Z,99506.47
2023-04-01T11:41:02.245Z,99494.28
2023-04-01T11:46:13.289Z,99500.28
2023-04-01T11:51:31.274Z,99493.81
2023-04-01T11:56:44.011Z,99496.38
2023-04-01T12:01:49.933Z,99477.91
2023-04-01T12:06:55.903Z,99486.88
2023-04-01T12:12:13.309Z,99474.81
2023-04-01T12:17:24.281Z,99474.03
2023-04-01T12:22:36.936Z,99469.50
2023-04-01T12:27:43.772Z,99453.50
2023-04-01T12:32:49.294Z,99456.75
2023-04-01T12:37:58.215Z,99463.97
2023-04-01T12:43:14.837Z,99456.03
2023-04-01T12:48:39.914Z,99456.94
2023-04-01T12:53:53.388Z,99450.47
2023-04-01T12:59:24.613Z,99459.91
2023-04-01T13:05:16.727Z,99467.44
2023-04-01T13:10:27.600Z,99474.53
2023-04-01T13:15:31.617Z,99475.75
2023-04-01T13:20:46.815Z,99470.06
2023-04-01T13:26:06.823Z,99462.59
2023-04-01T13:31:23.592Z,99470.00
2023-04-01T13:36:35.760Z,99471.41
2023-04-01T13:41:53.333Z,99465.34
2023-04-01T13:47:07.334Z,99461.34
2023-04-01T13:52:27.494Z,99457.84
2023-04-01T13:57:45.645Z,99452.19
2023-04-01T14:03:03.788Z,99457.72
2023-04-01T14:08:10.645Z,99463.41
2023-04-01T14:13:16.441Z,99469.41
2023-04-01T14:18:41.675Z,99463.94
2023-04-01T14:23:53.819Z,99459.13
2023-04-01T14:29:02.347Z,99446.03
2023-04-01T14:34:13.692Z,99431.31
2023-04-01T14:39:31.662Z,99416.03
2023-04-01T14:45:02.946Z,99410.50
2023-04-01T14:50:11.908Z,99413.53
2023-04-01T14:55:28.638Z,99415.06
2023-04-01T15:00:27.571Z,99411.78
2023-04-01T15:05:35.570Z,99410.66
2023-04-01T15:10:55.685Z,99421.16
2023-04-01T15:16:13.101Z,99413.06
2023-04-01T15:21:35.697Z,99424.97
2023-04-01T15:26:56.432Z,99427.63
2023-04-01T15:32:01.732Z,99431.59
2023-04-01T15:37:06.753Z,99455.56
2023-04-01T15:42:26.014Z,99448.59
2023-04-01T15:47:35.812Z,99438.16
2023-04-01T15:52:44.561Z,99440.94
2023-04-01T15:57:55.181Z,99432.44
2023-04-01T16:03:09.932Z,99453.44
2023-04-01T16:08:21.979Z,99459.00
2023-04-01T16:13:30.694Z,99460.13
2023-04-01T16:18:52.612Z,99470.06
2023-04-01T16:23:55.998Z,99492.56
2023-04-01T16:29:05.600Z,99497.19
2023-04-01T16:34:10.818Z,99499.31
2023-04-01T16:39:23.073Z,99507.16
2023-04-01T16:44:26.294Z,99489.59
2023-04-01T16:49:38.786Z,99474.63
2023-04-01T16:54:42.021Z,99489.94
2023-04-01T16:59:48.881Z,99487.03
2023-04-01T17:04:50.243Z,99487.06
2023-04-01T17:10:02.429Z,99496.81
2023-04-01T17:15:14.316Z,99494.75
2023-04-01T17:20:36.180Z,99486.50
2023-04-01T17:25:48.204Z,99482.59
2023-04-01T17:30:57.494Z,99483.81
2023-04-01T17:36:01.436Z,99473.59
2023-04-01T17:41:07.307Z,99482.69
2023-04-01T17:46:27.356Z,99487.69
2023-04-01T17:51:35.169Z,99478.81
2023-04-01T17:56:47.657Z,99489.97
2023-04-01T18:01:57.481Z,99488.91
2023-04-01T18:07:27.036Z,99502.59
2023-04-01T18:12:37.148Z,99496.31
2023-04-01T18:17:47.272Z,99497.84
2023-04-01T18:22:49.311Z,99491.69
2023-04-01T18:27:52.728Z,99503.56
2023-04-01T18:32:59.147Z,99508.41
2023-04-01T18:38:02.989Z,99519.81
2023-04-01T18:43:14.245Z,99528.66
2023-04-01T18:48:40.148Z,99535.13
2023-04-01T18:53:44.892Z,99547.03
2023-04-01T18:58:51.148Z,99552.63
2023-04-01T19:04:03.955Z,99579.34
2023-04-01T19:09:19.092Z,99586.66
2023-04-01T19:14:27.175Z,99589.25
2023-04-01T19:19:55.589Z,99577.09
2023-04-01T19:25:22.817Z,99584.84
2023-04-01T19:30:38.420Z,99590.41
2023-04-01T19:35:47.501Z,99588.38
2023-04-01T19:40:55.315Z,99596.03
2023-04-01T19:46:01.005Z,99585.16
2023-04-01T19:51:08.426Z,99602.78
2023-04-01T19:56:17.494Z,99597.72
2023-04-01T20:01:27.171Z,99607.78
2023-04-01T20:06:39.378Z,99614.06
2023-04-01T20:11:52.450Z,99619.69
2023-04-01T20:17:01.954Z,99620.81
2023-04-01T20:22:05.290Z,99610.06
2023-04-01T20:27:10.426Z,99618.69
2023-04-01T20:32:27.603Z,99634.53
2023-04-01T20:37:38.058Z,99639.19
2023-04-01T20:42:49.866Z,99675.44
2023-04-01T20:48:05.203Z,99640.03
2023-04-01T20:53:13.733Z,99646.56
2023-04-01T20:58:21.509Z,99637.78
2023-04-01T21:03:32.072Z,99643.63
2023-04-01T21:08:42.874Z,99651.53
2023-04-01T21:13:59.307Z,99654.91
2023-04-01T21:19:10.530Z,99657.34
2023-04-01T21:24:45.639Z,99666.00
2023-04-01T21:29:55.519Z,99665.56
2023-04-01T21:35:00.467Z,99671.31
2023-04-01T21:40:35.970Z,99667.06
2023-04-01T21:46:00.901Z,99673.50
2023-04-01T21:51:28.676Z,99690.56
2023-04-01T21:57:14.223Z,99666.34
2023-04-01T22:02:44.410Z,99683.06
2023-04-01T22:07:50.029Z,99666.53
2023-04-01T22:12:57.027Z,99675.25
2023-04-01T22:18:05.411Z,99670.00
2023-04-01T22:23:14.130Z,99678.06
2023-04-01T22:28:21.041Z,99672.06
2023-04-01T22:33:28.807Z,99673.50
2023-04-01T22:38:39.821Z,99668.31
2023-04-01T22:43:42.260Z,99677.72
2023-04-01T22:48:46.347Z,99676.56
2023-04-01T22:53:59.724Z,99686.22
2023-04-01T22:59:05.424Z,99693.78
2023-04-01T23:04:07.454Z,99675.63
2023-04-01T23:09:13.503Z,99682.38
2023-04-01T23:14:47.605Z,99683.25
2023-04-01T23:19:51.985Z,99686.72
2023-04-01T23:24:55.454Z,99671.41
2023-04-01T23:29:55.640Z,99680.25
2023-04-01T23:34:56.170Z,99672.31
2023-04-01T23:39:56.866Z,99683.91
2023-04-01T23:44:59.415Z,99671.09
2023-04-01T23:50:03.127Z,99665.84
2023-04-01T23:55:13.683Z,99668.31
